Canaveral Natl Seashore, Florida
Current Conditions -  °F | °C
As of 9:58 PM on Sunday 21 Dec 2014 (Local Time) from KTTS Reporting Station
Overcast Overcast  
Wind Chill: 70°   Ceiling: 8000
Heat Index: 70°   Visibility: 8mi
Dew Point: 66°   Wind: 7mph
Humidity: 87%   Direction: 160°SSE
Pressure: 30.03"   Gusts: NA
Location:  28.75°N, 80.75°W
Report Text: KTTS 220258Z AUTO 16006KT 8SM OVC080 21/19 A3003 RMK AO2 RAB0226E0232DZB0232E0243 SLP172 P0000 60000 T02100188 58004
Loading
Personal Weather Stations






























Interactive Weather Map New forecast layout! Learn more

10-Day Weather Forecast

Advertisements
Track Severe Weather on mobile